Time;durP1;ratioP1;P1;durP2;ratioP2;P2;SDS_P1;SDS_P2;PMS_P1;PMS_P2;Temp;Humidity;BMP_temperature;BMP_pressure;BME280_temperature;BME280_humidity;BME280_pressure;Samples;Min_cycle;Max_cycle;Signal;HPM_P1;HPM_P2
2021/03/16 00:02:18;;;;;;;1.02;0.78;;;;;;;1.34;100.00;99720.36;1726298;83;21163;-46
2021/03/16 00:05:19;;;;;;;0.30;0.30;;;;;;;1.33;100.00;99720.86;1701185;82;21186;-46
2021/03/16 00:08:20;;;;;;;1.15;0.50;;;;;;;1.29;100.00;99712.45;1729111;83;21147;-46
2021/03/16 00:11:20;;;;;;;0.23;0.23;;;;;;;1.27;100.00;99722.63;1734903;82;21788;-46
2021/03/16 00:14:20;;;;;;;1.12;0.40;;;;;;;1.25;100.00;99714.50;1735186;82;21143;-47
2021/03/16 00:17:21;;;;;;;1.20;0.60;;;;;;;1.23;100.00;99712.03;1735065;81;21146;-46
2021/03/16 00:20:21;;;;;;;1.62;0.82;;;;;;;1.23;100.00;99709.88;1734628;82;21142;-46
2021/03/16 00:23:21;;;;;;;3.20;0.98;;;;;;;1.20;100.00;99713.05;1734912;81;21131;-43
2021/03/16 00:26:23;;;;;;;0.47;0.47;;;;;;;1.16;100.00;99708.64;1734948;82;21561;-44
2021/03/16 00:29:23;;;;;;;2.60;1.30;;;;;;;1.14;100.00;99702.70;1742139;81;21150;-44
2021/03/16 00:32:25;;;;;;;0.45;0.20;;;;;;;1.13;100.00;99700.23;1740958;81;21197;-43
2021/03/16 00:35:26;;;;;;;0.40;0.40;;;;;;;1.10;100.00;99698.03;1734800;82;21122;-43
2021/03/16 00:38:27;;;;;;;1.00;0.85;;;;;;;1.07;100.00;99697.44;1734399;81;21126;-44
2021/03/16 00:41:27;;;;;;;2.35;2.15;;;;;;;1.05;100.00;99690.66;1734836;82;21660;-43
2021/03/16 00:44:28;;;;;;;1.87;1.10;;;;;;;1.01;100.00;99696.20;1734912;82;21147;-44
2021/03/16 00:47:28;;;;;;;0.33;0.33;;;;;;;0.97;100.00;99689.14;1735343;81;21125;-44
2021/03/16 00:50:30;;;;;;;2.50;1.85;;;;;;;0.94;100.00;99682.05;1735154;82;21134;-44
2021/03/16 00:53:30;;;;;;;1.17;1.17;;;;;;;0.90;100.00;99686.28;1735102;81;21431;-44
2021/03/16 00:56:31;;;;;;;2.62;1.07;;;;;;;0.85;100.00;99686.98;1733443;82;21538;-43
2021/03/16 00:59:31;;;;;;;0.10;0.10;;;;;;;0.83;100.00;99680.48;1677426;85;21204;-45
2021/03/16 01:02:31;;;;;;;3.77;0.45;;;;;;;0.83;100.00;99683.17;1677572;85;21218;-44
2021/03/16 01:05:32;;;;;;;1.55;1.07;;;;;;;0.82;100.00;99681.55;1677418;85;21030;-43
2021/03/16 01:08:33;;;;;;;0.60;0.60;;;;;;;0.79;100.00;99675.30;1678932;85;21634;-44
2021/03/16 01:11:34;;;;;;;1.15;0.65;;;;;;;0.79;100.00;99673.95;1707262;84;21214;-46
2021/03/16 01:14:34;;;;;;;0.68;0.37;;;;;;;0.77;100.00;99681.97;1740663;81;21166;-46
2021/03/16 01:17:35;;;;;;;0.35;0.35;;;;;;;0.70;99.92;99687.98;1740524;81;21158;-46
2021/03/16 01:20:35;;;;;;;0.05;0.05;;;;;;;0.61;99.87;99680.77;1677376;85;21521;-47
2021/03/16 01:23:36;;;;;;;2.02;1.00;;;;;;;0.54;99.93;99678.71;1704046;84;21550;-46
2021/03/16 01:26:37;;;;;;;0.53;0.47;;;;;;;0.52;100.00;99677.62;1678832;85;21138;-46
2021/03/16 01:29:37;;;;;;;0.20;0.20;;;;;;;0.48;100.00;99672.94;1690039;82;21505;-46
2021/03/16 01:32:38;;;;;;;0.37;0.25;;;;;;;0.45;100.00;99672.06;1732583;82;21162;-46
2021/03/16 01:35:39;;;;;;;1.95;0.35;;;;;;;0.42;100.00;99676.00;1755850;81;21180;-46
2021/03/16 01:38:40;;;;;;;1.30;1.27;;;;;;;0.41;100.00;99677.06;1737444;81;21184;-46
2021/03/16 01:41:43;;;;;;;0.08;0.08;;;;;;;0.41;100.00;99673.84;1719264;83;21164;-46
2021/03/16 01:44:44;;;;;;;0.00;0.00;;;;;;;0.42;100.00;99676.00;1720993;83;21242;-46
2021/03/16 01:47:52;;;;;;;0.15;0.15;;;;;;;0.42;100.00;99670.12;1758721;80;21557;-46
2021/03/16 01:50:53;;;;;;;5.47;0.80;;;;;;;0.45;100.00;99670.72;1746702;80;21142;-46
2021/03/16 01:53:55;;;;;;;0.30;0.30;;;;;;;0.41;100.00;99670.34;1758560;81;21143;-44
2021/03/16 01:56:55;;;;;;;0.30;0.30;;;;;;;0.39;100.00;99666.53;1726659;83;21127;-43
2021/03/16 02:00:15;;;;;;;0.72;0.72;;;;;;;0.39;100.00;99673.25;1718017;82;21454;-44
2021/03/16 02:03:35;;;;;;;0.10;0.10;;;;;;;0.40;100.00;99676.25;1734792;82;21142;-44
2021/03/16 02:07:05;;;;;;;0.20;0.20;;;;;;;0.39;100.00;99679.97;1734870;82;22230;-44
2021/03/16 02:10:35;;;;;;;0.10;0.10;;;;;;;0.38;100.00;99678.34;1734945;82;21157;-43
2021/03/16 02:14:07;;;;;;;0.75;0.75;;;;;;;0.40;100.00;99678.94;1735004;82;21557;-43
2021/03/16 02:17:35;;;;;;;0.53;0.53;;;;;;;0.39;100.00;99681.31;1735204;82;21111;-43
2021/03/16 02:21:13;;;;;;;0.45;0.45;;;;;;;0.37;100.00;99680.76;1735032;82;21106;-44
2021/03/16 02:24:59;;;;;;;0.10;0.10;;;;;;;0.39;100.00;99684.54;1734920;82;21008;-43
2021/03/16 02:28:56;;;;;;;0.00;0.00;;;;;;;0.38;100.00;99681.04;1867914;76;29517;-44
2021/03/16 02:32:18;;;;;;;0.17;0.17;;;;;;;0.32;100.00;99687.35;1792700;80;21129;-44
2021/03/16 02:35:37;;;;;;;0.40;0.40;;;;;;;0.36;100.00;99681.79;1815240;78;21620;-43
2021/03/16 02:38:58;;;;;;;0.57;0.23;;;;;;;0.36;100.00;99681.79;1790206;78;21149;-44
2021/03/16 02:42:17;;;;;;;0.40;0.40;;;;;;;0.39;100.00;99681.84;1785525;80;21137;-45
2021/03/16 02:45:37;;;;;;;0.00;0.00;;;;;;;0.41;100.00;99690.50;1723800;83;21142;-43
2021/03/16 02:48:56;;;;;;;0.28;0.28;;;;;;;0.45;100.00;99688.19;1746725;81;21174;-43
2021/03/16 02:52:15;;;;;;;0.30;0.30;;;;;;;0.48;100.00;99697.13;1721642;83;21504;-44
2021/03/16 02:55:33;;;;;;;0.98;0.55;;;;;;;0.50;100.00;99693.69;1730581;82;21135;-43
2021/03/16 02:58:53;;;;;;;0.37;0.37;;;;;;;0.55;100.00;99691.13;1763668;80;21517;-43
2021/03/16 03:02:12;;;;;;;0.53;0.53;;;;;;;0.59;100.00;99686.90;1722694;83;21141;-44
2021/03/16 03:05:31;;;;;;;1.27;0.50;;;;;;;0.62;100.00;99695.87;1739005;81;21114;-44
2021/03/16 03:08:52;;;;;;;0.53;0.53;;;;;;;0.64;100.00;99690.55;1709580;83;21184;-43
2021/03/16 03:12:15;;;;;;;0.55;0.55;;;;;;;0.69;100.00;99699.23;1723846;83;21700;-43
2021/03/16 03:15:34;;;;;;;2.35;0.75;;;;;;;0.71;100.00;99694.45;1727422;83;21473;-44
2021/03/16 03:18:53;;;;;;;0.40;0.40;;;;;;;0.73;100.00;99687.50;1735449;81;21099;-44
2021/03/16 03:22:30;;;;;;;0.78;0.47;;;;;;;0.75;100.00;99688.09;1738825;82;21142;-44
2021/03/16 03:25:52;;;;;;;0.42;0.42;;;;;;;0.75;100.00;99693.48;1725374;81;21220;-44
2021/03/16 03:29:13;;;;;;;;;;;;;;;0.72;100.00;99698.80;1739818;82;21153;-43
2021/03/16 03:32:31;;;;;;;0.10;0.10;;;;;;;0.70;100.00;99703.58;1737478;82;20270;-44
2021/03/16 03:35:51;;;;;;;0.25;0.25;;;;;;;0.67;100.00;99700.02;1705162;82;21161;-43
2021/03/16 03:39:11;;;;;;;0.75;0.75;;;;;;;0.63;100.00;99706.91;1736965;82;21189;-43
2021/03/16 03:42:32;;;;;;;0.10;0.10;;;;;;;0.58;100.00;99708.12;1737018;82;21132;-44
2021/03/16 03:45:52;;;;;;;0.40;0.40;;;;;;;0.54;100.00;99705.59;1733763;82;21185;-45
2021/03/16 03:49:12;;;;;;;4.47;1.10;;;;;;;0.52;100.00;99696.94;1737664;82;21489;-43
2021/03/16 03:52:32;;;;;;;0.60;0.60;;;;;;;0.49;100.00;99702.79;1738447;82;21141;-44
2021/03/16 03:55:51;;;;;;;0.78;0.78;;;;;;;0.49;100.00;99697.41;1725167;81;21165;-44
2021/03/16 03:59:11;;;;;;;1.07;1.05;;;;;;;0.50;100.00;99695.84;1757005;81;21146;-43
2021/03/16 04:02:30;;;;;;;0.13;0.13;;;;;;;0.52;100.00;99694.25;1756684;81;21181;-43
2021/03/16 04:05:49;;;;;;;0.17;0.17;;;;;;;0.53;100.00;99699.41;1732834;81;21138;-44
2021/03/16 04:09:07;;;;;;;1.07;1.07;;;;;;;0.55;100.00;99699.19;1756576;81;21131;-44
2021/03/16 04:12:27;;;;;;;0.60;0.60;;;;;;;0.57;100.00;99707.81;1738570;81;21847;-44
2021/03/16 04:15:45;;;;;;;1.10;1.02;;;;;;;0.55;100.00;99703.22;1756600;81;21167;-44
2021/03/16 04:19:04;;;;;;;0.20;0.20;;;;;;;0.56;100.00;99702.97;1737917;81;21189;-44
2021/03/16 04:22:23;;;;;;;2.08;0.62;;;;;;;0.58;100.00;99703.56;1756727;81;21558;-44
2021/03/16 04:25:42;;;;;;;6.00;0.72;;;;;;;0.57;100.00;99706.47;1768466;80;21111;-44
2021/03/16 04:29:00;;;;;;;0.30;0.30;;;;;;;0.55;100.00;99705.38;1745985;82;21601;-44
2021/03/16 04:32:19;;;;;;;1.20;0.37;;;;;;;0.55;100.00;99707.25;1745750;82;21306;-43
2021/03/16 04:35:38;;;;;;;0.40;0.40;;;;;;;0.54;100.00;99702.38;1727951;83;21195;-43
2021/03/16 04:38:56;;;;;;;0.20;0.20;;;;;;;0.57;100.00;99705.97;1728034;82;21662;-44
2021/03/16 04:42:15;;;;;;;1.72;1.27;;;;;;;0.60;100.00;99713.56;1699497;83;21145;-44
2021/03/16 04:45:34;;;;;;;0.15;0.15;;;;;;;0.64;100.00;99707.19;1703430;83;21129;-44
2021/03/16 04:48:54;;;;;;;0.08;0.08;;;;;;;0.69;100.00;99703.27;1726912;83;21134;-44
2021/03/16 04:52:05;;;;;;;0.37;0.37;;;;;;;0.73;100.00;99704.45;1701703;84;21554;-44
2021/03/16 04:55:12;;;;;;;1.70;0.47;;;;;;;0.79;100.00;99703.54;1727967;82;21449;-44
2021/03/16 04:58:31;;;;;;;2.83;0.35;;;;;;;0.86;100.00;99711.47;1731209;82;21134;-44
2021/03/16 05:01:50;;;;;;;0.20;0.20;;;;;;;0.94;100.00;99708.95;1711505;82;21170;-43
2021/03/16 05:05:10;;;;;;;0.17;0.17;;;;;;;1.02;100.00;99714.81;1693243;84;21192;-44
2021/03/16 05:08:29;;;;;;;0.00;0.00;;;;;;;1.06;100.00;99717.34;1702317;84;21662;-44
2021/03/16 05:11:48;;;;;;;2.22;0.53;;;;;;;1.11;100.00;99711.23;1717634;83;21155;-43
2021/03/16 05:15:06;;;;;;;0.20;0.20;;;;;;;1.18;100.00;99713.27;1717590;83;21167;-45
2021/03/16 05:18:24;;;;;;;0.08;0.08;;;;;;;1.23;100.00;99703.15;1717663;83;21170;-44
2021/03/16 05:21:43;;;;;;;0.55;0.55;;;;;;;1.27;100.00;99705.14;1720546;82;21256;-43
2021/03/16 05:25:02;;;;;;;1.05;0.93;;;;;;;1.33;100.00;99703.36;1705724;82;21142;-43
2021/03/16 05:28:20;;;;;;;0.50;0.50;;;;;;;1.37;100.00;99711.80;1714577;82;21147;-44
2021/03/16 05:31:39;;;;;;;0.28;0.28;;;;;;;1.38;100.00;99708.04;1703779;84;21148;-44
2021/03/16 05:34:58;;;;;;;0.20;0.20;;;;;;;1.41;100.00;99718.33;1724622;82;21194;-44
2021/03/16 05:38:16;;;;;;;1.65;0.20;;;;;;;1.42;100.00;99706.52;1719354;82;21487;-44
2021/03/16 05:41:35;;;;;;;0.45;0.45;;;;;;;1.43;100.00;99700.88;1716243;83;21201;-43
2021/03/16 05:44:53;;;;;;;0.05;0.05;;;;;;;1.47;100.00;99703.94;1711432;82;21162;-43
2021/03/16 05:48:15;;;;;;;0.85;0.85;;;;;;;1.52;100.00;99705.38;1733121;81;21123;-44
2021/03/16 05:51:34;;;;;;;1.17;0.37;;;;;;;1.54;100.00;99710.00;1727508;81;21153;-44
2021/03/16 05:54:54;;;;;;;0.10;0.10;;;;;;;1.57;100.00;99716.25;1729683;81;21114;-44
2021/03/16 05:58:12;;;;;;;0.10;0.10;;;;;;;1.64;100.00;99722.33;1732139;81;21031;-44
2021/03/16 06:01:31;;;;;;;0.20;0.20;;;;;;;1.70;100.00;99725.40;1746892;81;21117;-43
2021/03/16 06:04:51;;;;;;;0.30;0.20;;;;;;;1.75;100.00;99729.27;1735019;81;21443;-44
2021/03/16 06:08:10;;;;;;;0.10;0.10;;;;;;;1.79;100.00;99728.55;1743397;81;21115;-43
2021/03/16 06:11:31;;;;;;;1.65;1.02;;;;;;;1.82;100.00;99727.25;1737713;81;21164;-43
2021/03/16 06:14:50;;;;;;;0.00;0.00;;;;;;;1.83;100.00;99727.53;1728633;81;21524;-44
2021/03/16 06:18:09;;;;;;;0.23;0.23;;;;;;;1.84;100.00;99735.92;1724438;82;21150;-44
2021/03/16 06:21:30;;;;;;;1.45;0.85;;;;;;;1.85;100.00;99734.84;1724317;83;21577;-43
2021/03/16 06:24:50;;;;;;;0.00;0.00;;;;;;;1.89;100.00;99744.10;1724157;83;21172;-44
2021/03/16 06:28:18;;;;;;;0.10;0.10;;;;;;;1.91;99.99;99737.95;1720430;82;21148;-44
2021/03/16 06:31:37;;;;;;;0.10;0.10;;;;;;;1.97;99.91;99742.36;1760136;81;21473;-44
2021/03/16 06:35:07;;;;;;;0.45;0.45;;;;;;;2.03;99.70;99744.11;1762993;80;21504;-43
2021/03/16 06:38:26;;;;;;;0.23;0.23;;;;;;;2.06;99.57;99750.36;1765331;80;21103;-43
2021/03/16 06:41:45;;;;;;;0.95;0.95;;;;;;;2.10;99.51;99743.44;1765352;80;21166;-43
2021/03/16 06:45:07;;;;;;;0.20;0.20;;;;;;;2.18;99.49;99744.09;1764974;81;21663;-43
2021/03/16 06:48:30;;;;;;;1.15;0.95;;;;;;;2.24;99.49;99743.14;1728699;83;21677;-45
2021/03/16 06:51:50;;;;;;;0.00;0.00;;;;;;;2.33;99.41;99748.44;1722535;83;21150;-44
2021/03/16 06:55:21;;;;;;;0.30;0.30;;;;;;;2.42;99.08;99742.91;1738394;81;21126;-45
2021/03/16 06:58:41;;;;;;;0.10;0.10;;;;;;;2.45;98.71;99739.75;1724126;83;21589;-44
2021/03/16 07:01:59;;;;;;;0.00;0.00;;;;;;;2.51;98.66;99752.25;1741923;82;21535;-44
2021/03/16 07:05:20;;;;;;;1.90;1.27;;;;;;;2.59;98.38;99732.16;1723280;83;21139;-44
2021/03/16 07:08:38;;;;;;;0.50;0.50;;;;;;;2.63;98.08;99743.28;1754290;81;21165;-43
2021/03/16 07:11:58;;;;;;;1.25;0.70;;;;;;;2.68;98.07;99746.06;1721945;83;21191;-44
2021/03/16 07:15:16;;;;;;;0.25;0.25;;;;;;;2.77;98.06;99732.47;1733362;82;21470;-44
2021/03/16 07:18:42;;;;;;;0.30;0.30;;;;;;;2.85;97.85;99726.65;1791376;80;21157;-45
2021/03/16 07:22:02;;;;;;;6.65;0.80;;;;;;;2.97;97.45;99739.52;1756346;81;21166;-44
2021/03/16 07:25:21;;;;;;;0.57;0.57;;;;;;;3.06;97.05;99745.84;1781568;80;21466;-45
2021/03/16 07:28:40;;;;;;;0.10;0.10;;;;;;;3.12;96.35;99747.57;1789505;80;21130;-44
2021/03/16 07:32:00;;;;;;;0.00;0.00;;;;;;;3.12;96.07;99738.94;1787751;80;21141;-44
2021/03/16 07:35:18;;;;;;;0.45;0.45;;;;;;;3.11;95.39;99737.82;1726398;83;21473;-44
2021/03/16 07:38:38;;;;;;;0.20;0.20;;;;;;;3.08;95.28;99738.33;1756572;81;21190;-44
2021/03/16 07:41:57;;;;;;;0.10;0.10;;;;;;;3.01;95.40;99739.30;1715578;81;21138;-44
2021/03/16 07:45:16;;;;;;;0.35;0.35;;;;;;;3.03;95.56;99732.84;1729835;82;21112;-44
2021/03/16 07:48:36;;;;;;;0.35;0.25;;;;;;;3.16;96.84;99743.30;1756681;81;21138;-46
2021/03/16 07:51:54;;;;;;;0.10;0.10;;;;;;;3.49;97.35;99733.48;1746108;80;21138;-43
2021/03/16 07:55:14;;;;;;;0.20;0.20;;;;;;;3.84;97.19;99729.08;1739993;81;21208;-44
2021/03/16 07:58:32;;;;;;;0.30;0.30;;;;;;;4.14;95.76;99727.23;1727208;81;21130;-44
2021/03/16 08:01:54;;;;;;;0.40;0.40;;;;;;;4.26;94.27;99729.25;1747447;82;21573;-43
2021/03/16 08:05:22;;;;;;;0.17;0.17;;;;;;;4.45;94.17;99736.99;1748056;81;21135;-43
2021/03/16 08:08:49;;;;;;;0.00;0.00;;;;;;;4.59;91.98;99735.51;1734944;82;21134;-43
2021/03/16 08:12:10;;;;;;;0.20;0.20;;;;;;;4.60;91.28;99734.45;1747215;81;21146;-43
2021/03/16 08:15:31;;;;;;;0.03;0.03;;;;;;;4.50;90.06;99732.47;1748044;81;21126;-44
2021/03/16 08:18:51;;;;;;;0.00;0.00;;;;;;;4.35;89.88;99729.59;1747984;82;21130;-44
2021/03/16 08:22:09;;;;;;;3.12;0.70;;;;;;;4.23;89.70;99720.85;1748184;82;21139;-44
2021/03/16 08:25:30;;;;;;;0.35;0.35;;;;;;;4.15;90.26;99737.52;1719792;81;21633;-44
2021/03/16 08:28:53;;;;;;;0.60;0.60;;;;;;;4.09;90.21;99739.35;1728918;82;21161;-43
2021/03/16 08:32:12;;;;;;;3.83;0.57;;;;;;;4.12;90.54;99726.67;1731127;81;21588;-44
2021/03/16 08:35:30;;;;;;;0.15;0.15;;;;;;;4.19;90.69;99734.05;1730267;81;21489;-43
2021/03/16 08:38:50;;;;;;;0.75;0.75;;;;;;;4.25;90.51;99728.15;1730130;82;21123;-43
2021/03/16 08:42:10;;;;;;;0.55;0.55;;;;;;;4.31;90.04;99723.89;1730345;82;22035;-43
2021/03/16 08:45:38;;;;;;;0.00;0.00;;;;;;;4.36;90.46;99731.79;1729954;81;21170;-43
2021/03/16 08:48:58;;;;;;;0.10;0.10;;;;;;;4.46;90.46;99723.22;1730421;82;21146;-43
2021/03/16 08:52:32;;;;;;;0.10;0.10;;;;;;;4.62;90.75;99730.92;1730269;81;21142;-44
2021/03/16 08:55:58;;;;;;;0.33;0.33;;;;;;;4.90;91.04;99718.98;1730376;82;21158;-44
2021/03/16 08:59:17;;;;;;;0.68;0.68;;;;;;;5.12;90.13;99719.41;1730525;81;21217;-44
2021/03/16 09:02:39;;;;;;;0.30;0.28;;;;;;;5.33;89.42;99727.11;1704289;82;21135;-45
2021/03/16 09:05:59;;;;;;;0.37;0.37;;;;;;;5.45;88.05;99730.98;1746689;81;21145;-44
2021/03/16 09:09:18;;;;;;;0.35;0.35;;;;;;;5.43;86.12;99732.58;1763840;81;21453;-43
2021/03/16 09:12:37;;;;;;;0.53;0.47;;;;;;;5.31;85.98;99736.84;1749287;81;21534;-43
2021/03/16 09:15:55;;;;;;;0.25;0.25;;;;;;;5.28;86.33;99724.38;1730122;81;21198;-44
2021/03/16 09:19:19;;;;;;;0.30;0.30;;;;;;;5.26;85.93;99735.46;1731829;81;21555;-44
2021/03/16 09:22:38;;;;;;;0.10;0.10;;;;;;;5.22;85.98;99728.95;1730228;82;21524;-43
2021/03/16 09:25:56;;;;;;;0.20;0.20;;;;;;;5.30;86.60;99720.88;1730747;81;21110;-44
2021/03/16 09:29:18;;;;;;;0.17;0.17;;;;;;;5.39;86.32;99730.14;1724444;82;21126;-44
2021/03/16 09:32:38;;;;;;;0.45;0.45;;;;;;;5.43;86.02;99731.23;1719362;82;21251;-43
2021/03/16 09:36:07;;;;;;;0.40;0.40;;;;;;;5.52;86.25;99721.53;1730255;82;21154;-45
2021/03/16 09:40:04;;;;;;;0.53;0.53;;;;;;;5.67;84.23;99724.04;1826799;77;26287;-44
2021/03/16 09:43:07;;;;;;;0.25;0.25;;;;;;;5.54;84.93;99730.22;1797517;78;21161;-44
2021/03/16 09:46:16;;;;;;;0.47;0.47;;;;;;;5.59;85.05;99719.39;1796701;78;21181;-44
2021/03/16 09:49:16;;;;;;;0.08;0.08;;;;;;;5.68;84.86;99727.02;1796588;79;21153;-44
2021/03/16 09:52:17;;;;;;;0.90;0.90;;;;;;;5.76;83.54;99720.55;1796747;79;21122;-46
2021/03/16 09:55:17;;;;;;;1.45;0.47;;;;;;;5.84;84.16;99719.77;1769711;81;21109;-44
2021/03/16 09:58:29;;;;;;;0.23;0.20;;;;;;;5.90;84.36;99722.22;1768310;79;21130;-44
2021/03/16 10:01:29;;;;;;;0.88;0.88;;;;;;;6.01;84.12;99723.92;1790825;80;21968;-44
2021/03/16 10:04:31;;;;;;;0.37;0.37;;;;;;;6.01;83.53;99719.86;1790787;80;21122;-44
2021/03/16 10:07:37;;;;;;;0.20;0.20;;;;;;;5.98;83.09;99729.89;1811561;78;21158;-44
2021/03/16 10:10:45;;;;;;;0.25;0.25;;;;;;;5.93;83.28;99727.09;1823482;78;21521;-44
2021/03/16 10:13:46;;;;;;;1.30;0.85;;;;;;;5.95;83.60;99722.27;1823769;78;21498;-43
2021/03/16 10:16:46;;;;;;;1.35;0.75;;;;;;;6.03;83.43;99725.83;1823387;78;21176;-44
2021/03/16 10:19:49;;;;;;;0.62;0.15;;;;;;;6.14;83.72;99719.07;1795558;79;21169;-44
2021/03/16 10:22:49;;;;;;;0.40;0.40;;;;;;;6.28;83.69;99716.64;1763406;81;21181;-44
2021/03/16 10:26:08;;;;;;;0.25;0.25;;;;;;;6.40;83.43;99715.84;1743812;79;21449;-44
2021/03/16 10:29:18;;;;;;;0.30;0.30;;;;;;;6.49;82.62;99714.78;1761817;81;21110;-44
2021/03/16 10:32:19;;;;;;;0.37;0.28;;;;;;;6.52;81.71;99716.95;1762553;81;21181;-44
2021/03/16 10:35:20;;;;;;;2.33;0.85;;;;;;;6.40;80.98;99714.48;1795483;79;21136;-45
2021/03/16 10:38:21;;;;;;;0.40;0.40;;;;;;;6.25;80.96;99718.00;1733811;82;21145;-44
2021/03/16 10:41:22;;;;;;;0.75;0.70;;;;;;;6.12;81.15;99715.80;1764231;81;21142;-44
2021/03/16 10:44:23;;;;;;;0.23;0.20;;;;;;;5.97;81.21;99707.90;1783041;79;21641;-43
2021/03/16 10:47:17;;;;;;;2.92;0.68;;;;;;;5.83;81.44;99708.09;1795638;79;21178;-45
2021/03/16 10:50:18;;;;;;;0.80;0.80;;;;;;;5.75;81.81;99718.10;1782445;79;21170;-44
2021/03/16 10:53:20;;;;;;;0.85;0.85;;;;;;;5.70;82.27;99709.41;1763514;81;21426;-44
2021/03/16 10:56:24;;;;;;;2.75;1.52;;;;;;;5.67;82.56;99711.84;1731589;82;21155;-45
2021/03/16 10:59:25;;;;;;;2.65;1.35;;;;;;;5.63;82.35;99716.15;1766734;80;21118;-43
2021/03/16 11:02:25;;;;;;;0.78;0.70;;;;;;;5.59;83.00;99712.63;1792762;78;21175;-44
2021/03/16 11:05:26;;;;;;;1.95;1.80;;;;;;;5.64;83.41;99704.22;1813951;78;21130;-44
2021/03/16 11:08:29;;;;;;;0.78;0.70;;;;;;;5.68;83.42;99708.04;1822762;78;21935;-43
2021/03/16 11:11:29;;;;;;;0.68;0.68;;;;;;;5.67;83.20;99710.48;1790096;80;21130;-44
2021/03/16 11:14:30;;;;;;;1.47;1.20;;;;;;;5.62;83.51;99699.62;1790461;80;21411;-44
2021/03/16 11:17:33;;;;;;;1.22;1.17;;;;;;;5.65;83.92;99707.22;1790141;80;21186;-44
2021/03/16 11:20:36;;;;;;;1.17;0.70;;;;;;;5.68;84.13;99699.91;1790463;80;21138;-44
2021/03/16 11:23:37;;;;;;;0.10;0.10;;;;;;;5.78;84.40;99699.94;1790437;80;21153;-44
2021/03/16 11:26:37;;;;;;;1.25;1.15;;;;;;;5.86;84.34;99695.38;1781955;80;21617;-43
2021/03/16 11:29:37;;;;;;;0.17;0.17;;;;;;;5.98;84.34;99694.63;1734857;81;21552;-44
2021/03/16 11:32:38;;;;;;;1.75;0.95;;;;;;;6.11;84.26;99689.75;1798272;78;21102;-47
2021/03/16 11:35:57;;;;;;;0.37;0.37;;;;;;;6.19;83.83;99692.77;1796170;78;21127;-47
2021/03/16 11:39:15;;;;;;;0.62;0.62;;;;;;;6.25;83.62;99689.51;1799683;78;21094;-46
2021/03/16 11:42:34;;;;;;;1.90;0.85;;;;;;;6.33;83.89;99686.28;1796159;79;21165;-47
2021/03/16 11:45:53;;;;;;;1.02;0.93;;;;;;;6.40;83.02;99680.02;1796341;79;21561;-47
2021/03/16 11:49:12;;;;;;;3.90;2.35;;;;;;;6.38;82.97;99683.57;1817799;78;21470;-47
2021/03/16 11:52:31;;;;;;;0.68;0.68;;;;;;;6.39;83.47;99682.47;1785096;79;21157;-46
2021/03/16 11:55:49;;;;;;;2.52;2.10;;;;;;;6.49;83.75;99672.72;1770372;79;21130;-47
2021/03/16 11:59:09;;;;;;;0.68;0.57;;;;;;;6.58;84.16;99680.59;1733160;81;21141;-46
2021/03/16 12:02:27;;;;;;;0.40;0.40;;;;;;;6.64;83.61;99671.35;1782088;79;21187;-47
2021/03/16 12:05:48;;;;;;;2.12;1.37;;;;;;;6.62;83.99;99667.54;1747117;79;21165;-47
2021/03/16 12:09:08;;;;;;;1.65;1.42;;;;;;;6.71;83.85;99663.75;1763703;79;21177;-47
2021/03/16 12:12:27;;;;;;;0.70;0.70;;;;;;;6.80;83.12;99674.86;1731218;82;21165;-47
2021/03/16 12:15:48;;;;;;;1.30;1.00;;;;;;;6.77;82.33;99675.41;1733270;81;21135;-47
2021/03/16 12:19:06;;;;;;;1.55;1.45;;;;;;;6.70;82.51;99671.64;1790948;78;21090;-46
2021/03/16 12:22:27;;;;;;;1.45;1.35;;;;;;;6.66;82.58;99671.34;1796886;78;21122;-47
2021/03/16 12:25:51;;;;;;;4.37;1.02;;;;;;;6.64;83.21;99668.64;1790828;78;21106;-47
2021/03/16 12:29:06;;;;;;;0.65;0.65;;;;;;;6.67;82.94;99664.02;1794427;78;21123;-47
2021/03/16 12:32:24;;;;;;;2.67;2.08;;;;;;;6.64;82.96;99665.92;1780748;80;21126;-47
2021/03/16 12:35:43;;;;;;;2.37;1.95;;;;;;;6.66;83.04;99665.11;1796534;78;21435;-47
2021/03/16 12:39:02;;;;;;;2.60;2.37;;;;;;;6.68;82.83;99665.66;1800764;78;21150;-47
2021/03/16 12:42:20;;;;;;;0.78;0.78;;;;;;;6.66;82.61;99655.61;1794300;78;21158;-46
2021/03/16 12:45:42;;;;;;;3.37;1.67;;;;;;;6.61;82.18;99660.49;1803759;78;21098;-46
2021/03/16 12:49:00;;;;;;;3.10;1.12;;;;;;;6.65;82.37;99653.96;1790052;80;21146;-47
2021/03/16 12:52:19;;;;;;;0.93;0.90;;;;;;;6.69;82.02;99652.34;1807983;79;21115;-47
2021/03/16 12:55:40;;;;;;;7.83;1.50;;;;;;;6.70;82.04;99638.22;1777554;79;21094;-47
2021/03/16 12:58:59;;;;;;;3.05;2.17;;;;;;;6.72;81.82;99639.57;1807206;78;21150;-47
2021/03/16 13:02:17;;;;;;;1.62;1.52;;;;;;;6.76;82.02;99637.95;1821555;78;21158;-47
2021/03/16 13:05:38;;;;;;;1.42;1.05;;;;;;;6.84;81.54;99642.00;1794908;78;21098;-46
2021/03/16 13:08:56;;;;;;;0.95;0.75;;;;;;;6.88;81.32;99645.81;1817694;78;21102;-47
2021/03/16 13:12:18;;;;;;;0.60;0.57;;;;;;;6.89;81.21;99638.73;1807491;78;21134;-47
2021/03/16 13:15:38;;;;;;;1.47;1.40;;;;;;;6.93;81.25;99639.01;1802507;78;21118;-47
2021/03/16 13:18:59;;;;;;;0.50;0.50;;;;;;;6.94;81.03;99638.45;1742415;81;21170;-47
2021/03/16 13:22:11;;;;;;;1.55;0.98;;;;;;;6.94;81.39;99641.17;1802079;78;21096;-47
2021/03/16 13:25:29;;;;;;;1.20;0.50;;;;;;;6.92;81.38;99644.16;1790295;80;21115;-48
2021/03/16 13:28:48;;;;;;;0.35;0.35;;;;;;;6.89;81.56;99641.44;1790486;80;21115;-47
2021/03/16 13:32:08;;;;;;;0.65;0.65;;;;;;;6.85;82.02;99634.95;1792708;78;21122;-47
2021/03/16 13:35:26;;;;;;;1.32;0.65;;;;;;;6.83;82.22;99640.39;1790310;80;21118;-47
2021/03/16 13:38:45;;;;;;;1.17;0.82;;;;;;;6.77;82.77;99634.13;1763312;81;21609;-47
2021/03/16 13:42:04;;;;;;;0.10;0.10;;;;;;;6.72;83.00;99640.93;1763436;81;21617;-47
2021/03/16 13:45:23;;;;;;;2.72;1.37;;;;;;;6.65;83.04;99630.37;1765217;79;21056;-47
2021/03/16 13:48:42;;;;;;;0.82;0.82;;;;;;;6.61;83.14;99637.97;1770934;79;21142;-47
2021/03/16 13:52:00;;;;;;;2.55;1.75;;;;;;;6.60;83.42;99644.47;1765437;78;21133;-47
2021/03/16 13:55:21;;;;;;;0.50;0.47;;;;;;;6.64;83.52;99637.42;1763014;79;21453;-47
2021/03/16 13:58:43;;;;;;;0.53;0.30;;;;;;;6.70;83.50;99642.28;1763075;81;21151;-47
2021/03/16 14:02:01;;;;;;;0.10;0.10;;;;;;;6.73;83.45;99646.64;1763200;81;21225;-47
2021/03/16 14:05:22;;;;;;;1.30;1.17;;;;;;;6.77;83.55;99644.99;1763269;79;21186;-48
2021/03/16 14:08:40;;;;;;;0.57;0.57;;;;;;;6.83;83.43;99638.48;1731404;82;21581;-47
2021/03/16 14:11:59;;;;;;;0.88;0.75;;;;;;;6.91;83.36;99643.89;1763382;81;21605;-46
2021/03/16 14:15:18;;;;;;;0.30;0.30;;;;;;;6.96;82.71;99643.08;1731290;82;21179;-47
2021/03/16 14:18:37;;;;;;;3.52;1.30;;;;;;;6.94;82.69;99637.91;1763680;81;21201;-47
2021/03/16 14:21:57;;;;;;;0.00;0.00;;;;;;;6.86;82.94;99642.00;1731335;82;21151;-47
2021/03/16 14:25:17;;;;;;;1.00;1.00;;;;;;;6.78;83.21;99634.97;1763376;81;21487;-47
2021/03/16 14:28:35;;;;;;;1.12;1.00;;;;;;;6.73;83.52;99638.50;1731492;82;21134;-47
2021/03/16 14:31:54;;;;;;;2.35;1.25;;;;;;;6.68;83.65;99639.31;1787077;80;21126;-47
2021/03/16 14:35:14;;;;;;;0.40;0.40;;;;;;;6.61;83.92;99632.54;1803989;79;21112;-47
2021/03/16 14:38:33;;;;;;;2.15;1.17;;;;;;;6.56;83.91;99629.83;1803966;79;21543;-47
2021/03/16 14:41:51;;;;;;;0.53;0.53;;;;;;;6.47;84.17;99630.91;1803648;79;21135;-47
2021/03/16 14:45:12;;;;;;;2.77;0.95;;;;;;;6.36;84.22;99627.39;1792390;78;21135;-47
2021/03/16 14:48:33;;;;;;;0.20;0.20;;;;;;;6.25;84.58;99629.81;1766333;78;21157;-46
2021/03/16 14:51:51;;;;;;;0.25;0.25;;;;;;;6.14;84.85;99631.72;1763481;79;21153;-47
2021/03/16 14:55:11;;;;;;;0.93;0.82;;;;;;;6.05;85.27;99633.88;1763201;81;21142;-47
2021/03/16 14:58:29;;;;;;;1.02;1.02;;;;;;;5.97;85.51;99630.61;1763271;79;21174;-47
2021/03/16 15:01:49;;;;;;;0.93;0.93;;;;;;;5.95;85.92;99638.20;1783886;80;21457;-47
2021/03/16 15:05:08;;;;;;;1.35;1.25;;;;;;;5.93;86.12;99631.38;1760513;80;21142;-47
2021/03/16 15:08:26;;;;;;;1.05;0.50;;;;;;;5.90;86.48;99636.80;1778748;79;21564;-47
2021/03/16 15:11:45;;;;;;;0.40;0.40;;;;;;;5.87;86.55;99633.83;1768643;79;21150;-46
2021/03/16 15:15:03;;;;;;;0.85;0.82;;;;;;;5.87;86.63;99632.47;1783829;79;21567;-47
2021/03/16 15:18:23;;;;;;;1.47;0.45;;;;;;;5.81;86.60;99633.81;1751613;81;21146;-47
2021/03/16 15:21:44;;;;;;;0.68;0.68;;;;;;;5.75;86.74;99640.84;1773454;79;21377;-47
2021/03/16 15:25:03;;;;;;;1.90;1.17;;;;;;;5.65;86.80;99641.63;1788945;78;21142;-47
2021/03/16 15:28:21;;;;;;;2.62;0.80;;;;;;;5.54;86.92;99649.46;1788754;79;21150;-46